Map

Track Data

SID SEASON NUMBER BASIN SUBBASIN NAME ISO_TIME NATURE LAT LON WMO_WIND WMO_PRES WMO_AGENCY TRACK_TYPE DIST2LAND LANDFALL IFLAG USA_AGENCY USA_ATCF_ID USA_LAT USA_LON USA_RECORD USA_STATUS USA_WIND USA_PRES USA_SSHS USA_R34_NE USA_R34_SE USA_R34_SW USA_R34_NW USA_R50_NE USA_R50_SE USA_R50_SW USA_R50_NW USA_R64_NE USA_R64_SE USA_R64_SW USA_R64_NW USA_POCI USA_ROCI USA_RMW USA_EYE TOKYO_LAT TOKYO_LON TOKYO_GRADE TOKYO_WIND TOKYO_PRES TOKYO_R50_DIR TOKYO_R50_LONG TOKYO_R50_SHORT TOKYO_R30_DIR TOKYO_R30_LONG TOKYO_R30_SHORT TOKYO_LAND CMA_LAT CMA_LON CMA_CAT CMA_WIND CMA_PRES HKO_LAT HKO_LON HKO_CAT HKO_WIND HKO_PRES NEWDELHI_LAT NEWDELHI_LON NEWDELHI_GRADE NEWDELHI_WIND NEWDELHI_PRES NEWDELHI_CI NEWDELHI_DP NEWDELHI_POCI REUNION_LAT REUNION_LON REUNION_TYPE REUNION_WIND REUNION_PRES REUNION_TNUM REUNION_CI REUNION_RMW REUNION_R34_NE REUNION_R34_SE REUNION_R34_SW REUNION_R34_NW REUNION_R50_NE REUNION_R50_SE REUNION_R50_SW REUNION_R50_NW REUNION_R64_NE REUNION_R64_SE REUNION_R64_SW REUNION_R64_NW BOM_LAT BOM_LON BOM_TYPE BOM_WIND BOM_PRES BOM_TNUM BOM_CI BOM_RMW BOM_R34_NE BOM_R34_SE BOM_R34_SW BOM_R34_NW BOM_R50_NE BOM_R50_SE BOM_R50_SW BOM_R50_NW BOM_R64_NE BOM_R64_SE BOM_R64_SW BOM_R64_NW BOM_ROCI BOM_POCI BOM_EYE BOM_POS_METHOD BOM_PRES_METHOD NADI_LAT NADI_LON NADI_CAT NADI_WIND NADI_PRES WELLINGTON_LAT WELLINGTON_LON WELLINGTON_WIND WELLINGTON_PRES DS824_LAT DS824_LON DS824_STAGE DS824_WIND DS824_PRES TD9636_LAT TD9636_LON TD9636_STAGE TD9636_WIND TD9636_PRES TD9635_LAT TD9635_LON TD9635_WIND TD9635_PRES TD9635_ROCI NEUMANN_LAT NEUMANN_LON NEUMANN_CLASS NEUMANN_WIND NEUMANN_PRES MLC_LAT MLC_LON MLC_CLASS MLC_WIND MLC_PRES USA_GUST BOM_GUST BOM_GUST_PER REUNION_GUST REUNION_GUST_PER USA_SEAHGT USA_SEARAD_NE USA_SEARAD_SE USA_SEARAD_SW USA_SEARAD_NW STORM_SPEED STORM_DIR
1856287N31319 1856 15 NA NA NOT_NAMED 1856-10-13 00:00:00 TS 30.8000 -40.6000 main 2063 2053 _____________O -1 30.8000 -40.6000 TS 40 8 54
1856287N31319 1856 15 NA NA NOT_NAMED 1856-10-13 03:00:00 TS 31.0502 -40.2004 main 2052 2047 _____________P -1 31.0502 -40.2004 TS 40 8 54
1856287N31319 1856 15 NA NA NOT_NAMED 1856-10-13 06:00:00 TS 31.3000 -39.8000 main 2051 2042 _____________O -1 31.3000 -39.8000 TS 40 8 54
1856287N31319 1856 15 NA NA NOT_NAMED 1856-10-13 09:00:00 TS 31.5499 -39.3998 main 2051 2038 _____________P -1 31.5499 -39.3998 TS 40 8 54
1856287N31319 1856 15 NA NA NOT_NAMED 1856-10-13 12:00:00 TS 31.8000 -39.0000 main 2043 2034 _____________O -1 31.8000 -39.0000 TS 40 8 54
1856287N31319 1856 15 NA NA NOT_NAMED 1856-10-13 15:00:00 TS 32.0499 -38.5998 main 2044 2032 _____________P -1 32.0499 -38.5998 TS 40 8 54
1856287N31319 1856 15 NA NA NOT_NAMED 1856-10-13 18:00:00 TS 32.3000 -38.2000 main 2037 2030 _____________O -1 32.3000 -38.2000 TS 40 8 54
1856287N31319 1856 15 NA NA NOT_NAMED 1856-10-13 21:00:00 TS 32.5499 -37.7998 main 2040 2028 _____________P -1 32.5499 -37.7998 TS 40 8 53
1856287N31319 1856 15 NA NA NOT_NAMED 1856-10-14 00:00:00 TS 32.8000 -37.4000 main 2028 1995 _____________O -1 32.8000 -37.4000 TS 40 8 53
1856287N31319 1856 15 NA NA NOT_NAMED 1856-10-14 03:00:00 TS 33.0499 -36.9998 main 1995 1965 _____________P -1 33.0499 -36.9998 TS 40 8 53
1856287N31319 1856 15 NA NA NOT_NAMED 1856-10-14 06:00:00 TS 33.3000 -36.6000 main 1965 1933 _____________O -1 33.3000 -36.6000 TS 40 8 53
1856287N31319 1856 15 NA NA NOT_NAMED 1856-10-14 09:00:00 TS 33.5499 -36.1998 main 1933 1904 _____________P -1 33.5499 -36.1998 TS 40 8 53
1856287N31319 1856 15 NA NA NOT_NAMED 1856-10-14 12:00:00 TS 33.8000 -35.8000 main 1904 1874 _____________O -1 33.8000 -35.8000 TS 40 8 53
1856287N31319 1856 15 NA NA NOT_NAMED 1856-10-14 15:00:00 TS 34.0498 -35.4072 main 1874 1848 _____________P -1 34.0498 -35.4072 TS 40 8 53
1856287N31319 1856 15 NA NA NOT_NAMED 1856-10-14 18:00:00 TS 34.3000 -35.0000 main 1848 1819 _____________O -1 34.3000 -35.0000 TS 40 9 55
1856287N31319 1856 15 NA NA NOT_NAMED 1856-10-14 21:00:00 TS 34.5500 -34.5499 main 1810 1786 _____________P -1 34.5500 -34.5499 TS 40 9 56
1856287N31319 1856 15 NA NA NOT_NAMED 1856-10-15 00:00:00 TS 34.8000 -34.1000 main 1786 1760 _____________O -1 34.8000 -34.1000 TS 40 9 55
1856287N31319 1856 15 NA NA NOT_NAMED 1856-10-15 03:00:00 TS 35.0498 -33.6922 main 1760 1738 _____________P -1 35.0498 -33.6922 TS 40 8 53
1856287N31319 1856 15 NA NA NOT_NAMED 1856-10-15 06:00:00 TS 35.3000 -33.3000 main 1738 1717 _____________O -1 35.3000 -33.3000 TS 40 8 53
1856287N31319 1856 15 NA NA NOT_NAMED 1856-10-15 09:00:00 TS 35.5120 -32.9287 main 1713 1694 _____________P -1 35.5120 -32.9287 TS 40 8 53
1856287N31319 1856 15 NA NA NOT_NAMED 1856-10-15 12:00:00 TS 35.8000 -32.5000 main 1694 1673 _____________O -1 35.8000 -32.5000 TS 40 11 47
1856287N31319 1856 15 NA NA NOT_NAMED 1856-10-15 15:00:00 TS 36.2627 -31.9231 main 1671 1651 _____________P -1 36.2627 -31.9231 TS 40 14 44
1856287N31319 1856 15 NA NA NOT_NAMED 1856-10-15 18:00:00 TS 36.8000 -31.3000 main 1651 1637 _____________O -1 36.8000 -31.3000 TS 40 14 42
1856287N31319 1856 15 NA NA NOT_NAMED 1856-10-15 21:00:00 TS 37.2996 -30.7416 main 1636 1632 _____________P -1 37.2996 -30.7416 TS 40 13 41
1856287N31319 1856 15 NA NA NOT_NAMED 1856-10-16 00:00:00 TS 37.8000 -30.2000 main 1632 1625 _____________O -1 37.8000 -30.2000 TS 40 13 41
1856287N31319 1856 15 NA NA NOT_NAMED 1856-10-16 03:00:00 TS 38.2997 -29.6492 main 1625 1625 _____________P -1 38.2997 -29.6492 TS 40 13 41
1856287N31319 1856 15 NA NA NOT_NAMED 1856-10-16 06:00:00 TS 38.8000 -29.1000 main 1629 1620 _____________O -1 38.8000 -29.1000 TS 40 12 43
1856287N31319 1856 15 NA NA NOT_NAMED 1856-10-16 09:00:00 TS 39.1716 -28.5889 main 1628 1588 _____________P -1 39.1716 -28.5889 TS 40 13 40
1856287N31319 1856 15 NA NA NOT_NAMED 1856-10-16 12:00:00 TS 39.8000 -28.0000 main 1588 1498 _____________O -1 39.8000 -28.0000 TS 40 21 30
1856287N31319 1856 15 NA NA NOT_NAMED 1856-10-16 15:00:00 TS 41.0154 -27.2043 main 1487 1391 _____________P -1 41.0154 -27.2043 TS 40 30 25
1856287N31319 1856 15 NA NA NOT_NAMED 1856-10-16 18:00:00 TS 42.5000 -26.3000 main 1381 1296 _____________O -1 42.5000 -26.3000 TS 40 32 25
1856287N31319 1856 15 NA NA NOT_NAMED 1856-10-16 21:00:00 TS 43.9146 -25.3982 main 1296 1231 _____________P -1 43.9146 -25.3982 TS 40 31 25
1856287N31319 1856 15 NA NA NOT_NAMED 1856-10-17 00:00:00 ET 45.3000 -24.5000 main 1232 1125 _____________O -1 45.3000 -24.5000 EX 40 29 25
1856287N31319 1856 15 NA NA NOT_NAMED 1856-10-17 03:00:00 ET 46.5565 -23.6433 main 1113 994 _____________P -1 46.5565 -23.6433 EX 40 28 25
1856287N31319 1856 15 NA NA NOT_NAMED 1856-10-17 06:00:00 ET 47.8000 -22.8000 main 988 862 _____________O -1 47.8000 -22.8000 EX 40 28 26
1856287N31319 1856 15 NA NA NOT_NAMED 1856-10-17 09:00:00 ET 49.1286 -21.8145 main 856 750 _____________P -1 49.1286 -21.8145 EX 40 29 24
1856287N31319 1856 15 NA NA NOT_NAMED 1856-10-17 12:00:00 ET 50.5000 -21.0000 main 746 695 _____________O -1 50.5000 -21.0000 EX 40 29 15
1856287N31319 1856 15 NA NA NOT_NAMED 1856-10-17 15:00:00 ET 51.8986 -20.6426 main 687 678 _____________P -1 51.8986 -20.6426 EX 40 28 6
1856287N31319 1856 15 NA NA NOT_NAMED 1856-10-17 18:00:00 ET 53.3000 -20.5000 main 679 657 _____________O -1 53.3000 -20.5000 EX 40 28 4
1856287N31319 1856 15 NA NA NOT_NAMED 1856-10-17 21:00:00 ET 54.6631 -20.2909 main 657 650 _____________P -1 54.6631 -20.2909 EX 40 27 6
1856287N31319 1856 15 NA NA NOT_NAMED 1856-10-18 00:00:00 ET 56.0000 -20.0000 main 656 _____________O -1 56.0000 -20.0000 EX 40 27 7

About IBTrACS Database

This database is a web-friendly format of International Best Track Archive for Climate Stewardship (IBTrACS), a global best track data archive curated by NOAA dating back to 1842.

Updated: 2021-12-03